VOZ326 YBBN-YMML
Flight info
| Callsign | VOZ326 |
|---|---|
| Flight time | N/A |
| Altitude | 32000 |
| Route | SANEG2/01R SANEG Q35 DORSU H119 ML |
| Aircraft | B738/M-SDE2E3FGHIRWXY/LB1 |
Departure
| Time | N/A |
|---|---|
| Airport | Brisbane International Airport (YBBN) |
Arrival
| Time | 2026-05-05 11:44 |
|---|---|
| Airport | Melbourne Airport (YMML) |
| Time | Latitude | Longitude | Altitude | Speed | Heading |
|---|---|---|---|---|---|
| 2026-05-05 10:18 | -31.23253 | 150.46693 | 36182 ft | 428 kts | 232° |
| 2026-05-05 10:18 | -31.25469 | 150.44382 | 36188 ft | 428 kts | 232° |
| 2026-05-05 10:18 | -31.29918 | 150.39741 | 36174 ft | 429 kts | 232° |
| 2026-05-05 10:19 | -31.34370 | 150.35092 | 36190 ft | 430 kts | 232° |
| 2026-05-05 10:19 | -31.38828 | 150.30429 | 36198 ft | 430 kts | 232° |
| 2026-05-05 10:20 | -31.43267 | 150.25778 | 36183 ft | 430 kts | 232° |
| 2026-05-05 10:20 | -31.47732 | 150.21097 | 36201 ft | 431 kts | 231° |
| 2026-05-05 10:21 | -31.52204 | 150.16414 | 36228 ft | 431 kts | 231° |
| 2026-05-05 10:21 | -31.56682 | 150.11707 | 36211 ft | 432 kts | 231° |
| 2026-05-05 10:22 | -31.61154 | 150.06996 | 36204 ft | 432 kts | 231° |
| 2026-05-05 10:22 | -31.65598 | 150.02308 | 36209 ft | 432 kts | 231° |
| 2026-05-05 10:23 | -31.70075 | 149.97579 | 36230 ft | 432 kts | 231° |
| 2026-05-05 10:23 | -31.74554 | 149.92841 | 36218 ft | 432 kts | 231° |
| 2026-05-05 10:24 | -31.78995 | 149.88135 | 36221 ft | 432 kts | 231° |
| 2026-05-05 10:24 | -31.83462 | 149.83399 | 36222 ft | 432 kts | 231° |
| 2026-05-05 10:25 | -31.87739 | 149.78499 | 36214 ft | 427 kts | 234° |
| 2026-05-05 10:25 | -31.91859 | 149.73466 | 36222 ft | 426 kts | 234° |
| 2026-05-05 10:26 | -31.95973 | 149.68433 | 36213 ft | 426 kts | 234° |
| 2026-05-05 10:26 | -32.00101 | 149.63413 | 36222 ft | 426 kts | 234° |
| 2026-05-05 10:27 | -32.04224 | 149.58398 | 36228 ft | 426 kts | 234° |
| 2026-05-05 10:27 | -32.08319 | 149.53416 | 36222 ft | 426 kts | 234° |
| 2026-05-05 10:28 | -32.12436 | 149.48407 | 36226 ft | 426 kts | 234° |
| 2026-05-05 10:28 | -32.16561 | 149.43381 | 36229 ft | 426 kts | 234° |
| 2026-05-05 10:29 | -32.20684 | 149.38350 | 36228 ft | 426 kts | 234° |
| 2026-05-05 10:29 | -32.24807 | 149.33313 | 36262 ft | 426 kts | 234° |
| 2026-05-05 10:30 | -32.28933 | 149.28263 | 36239 ft | 428 kts | 234° |
| 2026-05-05 10:30 | -32.33042 | 149.23228 | 36238 ft | 428 kts | 234° |
| 2026-05-05 10:31 | -32.37176 | 149.18157 | 36234 ft | 428 kts | 234° |
| 2026-05-05 10:31 | -32.41312 | 149.13076 | 36242 ft | 428 kts | 234° |
| 2026-05-05 10:32 | -32.45449 | 149.07987 | 36239 ft | 429 kts | 234° |
| 2026-05-05 10:32 | -32.49581 | 149.02896 | 36250 ft | 429 kts | 233° |
| 2026-05-05 10:33 | -32.53715 | 148.97795 | 36249 ft | 429 kts | 233° |
| 2026-05-05 10:33 | -32.57844 | 148.92694 | 36241 ft | 429 kts | 233° |
| 2026-05-05 10:34 | -32.61968 | 148.87590 | 36261 ft | 429 kts | 233° |
| 2026-05-05 10:34 | -32.66097 | 148.82474 | 36247 ft | 429 kts | 233° |
| 2026-05-05 10:35 | -32.70194 | 148.77391 | 36257 ft | 428 kts | 233° |
| 2026-05-05 10:35 | -32.74310 | 148.72275 | 36261 ft | 428 kts | 233° |
| 2026-05-05 10:36 | -32.78428 | 148.67150 | 36267 ft | 428 kts | 233° |
| 2026-05-05 10:36 | -32.82544 | 148.62020 | 36257 ft | 429 kts | 233° |
| 2026-05-05 10:37 | -32.86655 | 148.56889 | 36258 ft | 428 kts | 233° |
| 2026-05-05 10:37 | -32.90767 | 148.51749 | 36259 ft | 428 kts | 233° |
| 2026-05-05 10:38 | -32.94872 | 148.46612 | 36276 ft | 428 kts | 233° |
| 2026-05-05 10:38 | -32.98954 | 148.41494 | 36259 ft | 429 kts | 233° |
| 2026-05-05 10:39 | -33.03065 | 148.36332 | 36256 ft | 429 kts | 233° |
| 2026-05-05 10:39 | -33.07170 | 148.31171 | 36265 ft | 429 kts | 233° |
| 2026-05-05 10:40 | -33.11276 | 148.26003 | 36279 ft | 429 kts | 233° |
| 2026-05-05 10:40 | -33.15680 | 148.21120 | 36271 ft | 436 kts | 225° |
| 2026-05-05 10:41 | -33.20517 | 148.16716 | 36258 ft | 438 kts | 223° |
| 2026-05-05 10:41 | -33.25376 | 148.12334 | 36260 ft | 437 kts | 224° |
| 2026-05-05 10:42 | -33.32588 | 148.05719 | 36261 ft | 437 kts | 224° |
| 2026-05-05 10:43 | -33.37391 | 148.01272 | 36259 ft | 436 kts | 224° |
| 2026-05-05 10:43 | -33.42190 | 147.96817 | 36264 ft | 436 kts | 224° |
| 2026-05-05 10:44 | -33.46987 | 147.92359 | 36287 ft | 436 kts | 223° |
| 2026-05-05 10:44 | -33.51782 | 147.87897 | 36270 ft | 436 kts | 223° |
| 2026-05-05 10:45 | -33.56573 | 147.83432 | 36257 ft | 436 kts | 223° |
| 2026-05-05 10:45 | -33.61359 | 147.78967 | 36258 ft | 436 kts | 224° |
| 2026-05-05 10:46 | -33.66106 | 147.74530 | 36279 ft | 436 kts | 223° |
| 2026-05-05 10:46 | -33.70893 | 147.70050 | 36261 ft | 436 kts | 223° |
| 2026-05-05 10:47 | -33.75676 | 147.65566 | 36263 ft | 435 kts | 223° |
| 2026-05-05 10:47 | -33.80458 | 147.61079 | 36260 ft | 435 kts | 223° |
| 2026-05-05 10:48 | -33.85195 | 147.56627 | 36260 ft | 435 kts | 223° |
| 2026-05-05 10:48 | -33.89960 | 147.52141 | 36264 ft | 434 kts | 223° |
| 2026-05-05 10:49 | -33.94728 | 147.47646 | 36267 ft | 434 kts | 223° |
| 2026-05-05 10:49 | -33.99485 | 147.43160 | 36285 ft | 434 kts | 222° |
| 2026-05-05 10:50 | -34.04252 | 147.38667 | 36269 ft | 435 kts | 222° |
| 2026-05-05 10:50 | -34.09011 | 147.34163 | 36265 ft | 435 kts | 222° |
| 2026-05-05 10:51 | -34.13771 | 147.29647 | 36267 ft | 435 kts | 222° |
| 2026-05-05 10:51 | -34.18501 | 147.25154 | 36276 ft | 435 kts | 222° |
| 2026-05-05 10:52 | -34.23265 | 147.20623 | 36263 ft | 436 kts | 222° |
| 2026-05-05 10:52 | -34.28033 | 147.16082 | 36262 ft | 436 kts | 222° |
| 2026-05-05 10:53 | -34.32798 | 147.11535 | 36266 ft | 436 kts | 222° |
| 2026-05-05 10:53 | -34.37555 | 147.06978 | 36270 ft | 436 kts | 222° |
| 2026-05-05 10:54 | -34.42306 | 147.02428 | 36264 ft | 435 kts | 222° |
| 2026-05-05 10:54 | -34.47023 | 146.97909 | 36263 ft | 435 kts | 222° |
| 2026-05-05 10:55 | -34.51770 | 146.93356 | 36279 ft | 434 kts | 222° |
| 2026-05-05 10:55 | -34.56500 | 146.88810 | 36266 ft | 433 kts | 222° |
| 2026-05-05 10:56 | -34.61221 | 146.84268 | 36259 ft | 432 kts | 222° |
| 2026-05-05 10:56 | -34.65926 | 146.79733 | 36265 ft | 431 kts | 222° |
| 2026-05-05 10:57 | -34.70617 | 146.75205 | 36274 ft | 430 kts | 222° |
| 2026-05-05 10:57 | -34.75300 | 146.70678 | 36264 ft | 429 kts | 222° |
| 2026-05-05 10:58 | -34.79974 | 146.66167 | 36261 ft | 428 kts | 222° |
| 2026-05-05 10:58 | -34.84629 | 146.61646 | 36278 ft | 428 kts | 222° |
| 2026-05-05 10:59 | -34.89281 | 146.57119 | 36268 ft | 428 kts | 222° |
| 2026-05-05 10:59 | -34.93902 | 146.52624 | 36265 ft | 427 kts | 222° |
| 2026-05-05 11:00 | -34.98574 | 146.48075 | 36264 ft | 427 kts | 222° |
| 2026-05-05 11:00 | -35.03188 | 146.43575 | 36272 ft | 427 kts | 222° |
| 2026-05-05 11:01 | -35.07834 | 146.39037 | 36263 ft | 427 kts | 222° |
| 2026-05-05 11:01 | -35.12477 | 146.34494 | 36259 ft | 428 kts | 222° |
| 2026-05-05 11:02 | -35.17119 | 146.29945 | 36276 ft | 428 kts | 222° |
| 2026-05-05 11:02 | -35.21762 | 146.25389 | 36264 ft | 428 kts | 222° |
| 2026-05-05 11:03 | -35.25625 | 146.21594 | 36258 ft | 428 kts | 222° |
| 2026-05-05 11:03 | -35.30268 | 146.17024 | 36258 ft | 428 kts | 222° |
| 2026-05-05 11:04 | -35.34902 | 146.12459 | 36266 ft | 428 kts | 222° |
| 2026-05-05 11:04 | -35.39543 | 146.07879 | 36259 ft | 428 kts | 222° |
| 2026-05-05 11:05 | -35.44184 | 146.03297 | 36251 ft | 428 kts | 222° |
| 2026-05-05 11:05 | -35.48807 | 145.98712 | 36260 ft | 428 kts | 222° |
| 2026-05-05 11:06 | -35.53435 | 145.94120 | 36265 ft | 427 kts | 222° |
| 2026-05-05 11:06 | -35.58058 | 145.89530 | 36262 ft | 427 kts | 222° |
| 2026-05-05 11:07 | -35.62651 | 145.84972 | 36072 ft | 426 kts | 222° |
| 2026-05-05 11:07 | -35.64943 | 145.82698 | 35880 ft | 419 kts | 221° |
| 2026-05-05 11:07 | -35.67190 | 145.80465 | 35934 ft | 413 kts | 222° |
| 2026-05-05 11:08 | -35.71645 | 145.76021 | 35924 ft | 413 kts | 222° |
| 2026-05-05 11:08 | -35.76141 | 145.71510 | 35950 ft | 421 kts | 222° |
| 2026-05-05 11:08 | -35.78442 | 145.69204 | 35520 ft | 433 kts | 222° |
| 2026-05-05 11:09 | -35.80785 | 145.66858 | 35166 ft | 432 kts | 221° |
| 2026-05-05 11:09 | -35.83098 | 145.64544 | 34754 ft | 428 kts | 221° |
| 2026-05-05 11:09 | -35.85407 | 145.62233 | 34336 ft | 425 kts | 221° |
| 2026-05-05 11:09 | -35.87668 | 145.59968 | 33885 ft | 422 kts | 221° |
| 2026-05-05 11:10 | -35.89964 | 145.57666 | 33441 ft | 418 kts | 221° |
| 2026-05-05 11:10 | -35.92180 | 145.55440 | 33037 ft | 414 kts | 221° |
| 2026-05-05 11:10 | -35.94404 | 145.53205 | 32638 ft | 411 kts | 220° |
| 2026-05-05 11:10 | -35.96612 | 145.50991 | 32249 ft | 407 kts | 220° |
| 2026-05-05 11:11 | -35.98806 | 145.48780 | 31862 ft | 404 kts | 220° |
| 2026-05-05 11:11 | -36.00977 | 145.46590 | 31481 ft | 401 kts | 220° |
| 2026-05-05 11:11 | -36.03129 | 145.44418 | 31094 ft | 397 kts | 219° |
| 2026-05-05 11:11 | -36.05246 | 145.42283 | 30764 ft | 393 kts | 219° |
| 2026-05-05 11:12 | -36.07367 | 145.40141 | 30392 ft | 391 kts | 219° |
| 2026-05-05 11:12 | -36.09468 | 145.38017 | 29925 ft | 390 kts | 219° |
| 2026-05-05 11:12 | -36.11555 | 145.35905 | 29545 ft | 386 kts | 219° |
| 2026-05-05 11:12 | -36.13628 | 145.33807 | 29144 ft | 383 kts | 219° |
| 2026-05-05 11:13 | -36.15682 | 145.31727 | 28757 ft | 380 kts | 219° |
| 2026-05-05 11:13 | -36.17726 | 145.29657 | 28383 ft | 377 kts | 219° |
| 2026-05-05 11:13 | -36.19724 | 145.27631 | 28011 ft | 374 kts | 219° |
| 2026-05-05 11:13 | -36.21728 | 145.25597 | 27645 ft | 371 kts | 219° |
| 2026-05-05 11:14 | -36.23722 | 145.23572 | 27279 ft | 368 kts | 219° |
| 2026-05-05 11:14 | -36.25692 | 145.21570 | 26920 ft | 366 kts | 219° |
| 2026-05-05 11:14 | -36.27660 | 145.19569 | 26569 ft | 363 kts | 219° |
| 2026-05-05 11:14 | -36.29606 | 145.17589 | 26213 ft | 361 kts | 219° |
| 2026-05-05 11:15 | -36.31540 | 145.15619 | 25856 ft | 359 kts | 219° |
| 2026-05-05 11:15 | -36.33470 | 145.13653 | 25503 ft | 357 kts | 219° |
| 2026-05-05 11:15 | -36.35387 | 145.11699 | 25151 ft | 356 kts | 219° |
| 2026-05-05 11:15 | -36.37293 | 145.09755 | 24804 ft | 354 kts | 219° |
| 2026-05-05 11:16 | -36.39190 | 145.07818 | 24457 ft | 353 kts | 219° |
| 2026-05-05 11:16 | -36.41057 | 145.05912 | 24102 ft | 352 kts | 219° |
| 2026-05-05 11:16 | -36.42964 | 145.03962 | 23737 ft | 350 kts | 219° |
| 2026-05-05 11:16 | -36.44825 | 145.02059 | 23335 ft | 349 kts | 219° |
| 2026-05-05 11:17 | -36.46695 | 145.00145 | 22958 ft | 347 kts | 219° |
| 2026-05-05 11:17 | -36.48549 | 144.98246 | 22606 ft | 344 kts | 219° |
| 2026-05-05 11:17 | -36.50393 | 144.96356 | 22256 ft | 342 kts | 219° |
| 2026-05-05 11:17 | -36.52220 | 144.94482 | 21920 ft | 340 kts | 219° |
| 2026-05-05 11:18 | -36.54036 | 144.92620 | 21580 ft | 337 kts | 219° |
| 2026-05-05 11:18 | -36.55839 | 144.90768 | 21248 ft | 335 kts | 219° |
| 2026-05-05 11:18 | -36.57613 | 144.88945 | 20929 ft | 333 kts | 220° |
| 2026-05-05 11:18 | -36.59417 | 144.87090 | 20592 ft | 332 kts | 220° |
| 2026-05-05 11:19 | -36.61192 | 144.85264 | 20268 ft | 330 kts | 220° |
| 2026-05-05 11:19 | -36.62931 | 144.83474 | 19941 ft | 328 kts | 220° |
| 2026-05-05 11:19 | -36.64689 | 144.81664 | 19612 ft | 327 kts | 220° |
| 2026-05-05 11:19 | -36.66445 | 144.79855 | 19287 ft | 326 kts | 220° |
| 2026-05-05 11:20 | -36.68186 | 144.78067 | 18995 ft | 324 kts | 220° |
| 2026-05-05 11:20 | -36.69921 | 144.76287 | 18696 ft | 322 kts | 220° |
| 2026-05-05 11:20 | -36.71648 | 144.74514 | 18365 ft | 320 kts | 220° |
| 2026-05-05 11:20 | -36.73363 | 144.72753 | 18024 ft | 319 kts | 220° |
| 2026-05-05 11:21 | -36.75073 | 144.70996 | 17691 ft | 317 kts | 220° |
| 2026-05-05 11:21 | -36.76771 | 144.69249 | 17368 ft | 315 kts | 220° |
| 2026-05-05 11:21 | -36.78458 | 144.67513 | 17051 ft | 314 kts | 220° |
| 2026-05-05 11:21 | -36.80277 | 144.66048 | 16709 ft | 313 kts | 201° |
| 2026-05-05 11:22 | -36.82410 | 144.65573 | 16430 ft | 312 kts | 179° |
| 2026-05-05 11:22 | -36.84555 | 144.65913 | 16143 ft | 310 kts | 171° |
| 2026-05-05 11:22 | -36.86678 | 144.66395 | 15823 ft | 310 kts | 170° |
| 2026-05-05 11:22 | -36.88790 | 144.66895 | 15516 ft | 308 kts | 170° |
| 2026-05-05 11:23 | -36.90893 | 144.67388 | 15213 ft | 307 kts | 171° |
| 2026-05-05 11:23 | -36.92996 | 144.67872 | 14905 ft | 306 kts | 171° |
| 2026-05-05 11:23 | -36.95069 | 144.68342 | 14607 ft | 306 kts | 171° |
| 2026-05-05 11:23 | -36.97162 | 144.68811 | 14307 ft | 305 kts | 171° |
| 2026-05-05 11:24 | -36.99246 | 144.69275 | 14004 ft | 304 kts | 171° |
| 2026-05-05 11:24 | -37.01330 | 144.69736 | 13665 ft | 303 kts | 171° |
| 2026-05-05 11:24 | -37.03406 | 144.70196 | 13341 ft | 302 kts | 171° |
| 2026-05-05 11:24 | -37.05467 | 144.70651 | 13029 ft | 300 kts | 171° |
| 2026-05-05 11:25 | -37.07526 | 144.71107 | 12732 ft | 299 kts | 171° |
| 2026-05-05 11:25 | -37.09569 | 144.71558 | 12435 ft | 297 kts | 171° |
| 2026-05-05 11:25 | -37.11603 | 144.72008 | 12135 ft | 296 kts | 171° |
| 2026-05-05 11:25 | -37.13626 | 144.72456 | 11841 ft | 294 kts | 171° |
| 2026-05-05 11:26 | -37.15641 | 144.72902 | 11537 ft | 293 kts | 172° |
| 2026-05-05 11:26 | -37.17641 | 144.73363 | 11253 ft | 292 kts | 170° |
| 2026-05-05 11:26 | -37.19625 | 144.73882 | 10961 ft | 290 kts | 169° |
| 2026-05-05 11:26 | -37.21598 | 144.74416 | 10667 ft | 290 kts | 169° |
| 2026-05-05 11:27 | -37.23555 | 144.74945 | 10478 ft | 285 kts | 169° |
| 2026-05-05 11:27 | -37.25469 | 144.75459 | 10342 ft | 278 kts | 170° |
| 2026-05-05 11:27 | -37.27334 | 144.75958 | 10126 ft | 274 kts | 170° |
| 2026-05-05 11:27 | -37.29197 | 144.76455 | 9837 ft | 273 kts | 170° |
| 2026-05-05 11:28 | -37.31049 | 144.76948 | 9559 ft | 272 kts | 169° |
| 2026-05-05 11:28 | -37.32870 | 144.77434 | 9283 ft | 270 kts | 170° |
| 2026-05-05 11:28 | -37.34737 | 144.77851 | 9034 ft | 269 kts | 173° |
| 2026-05-05 11:28 | -37.36567 | 144.78166 | 8806 ft | 270 kts | 174° |
| 2026-05-05 11:29 | -37.38437 | 144.78475 | 8556 ft | 271 kts | 174° |
| 2026-05-05 11:29 | -37.40297 | 144.78792 | 8321 ft | 270 kts | 173° |
| 2026-05-05 11:29 | -37.42160 | 144.79113 | 8078 ft | 269 kts | 173° |
| 2026-05-05 11:29 | -37.44013 | 144.79436 | 7836 ft | 268 kts | 173° |
| 2026-05-05 11:30 | -37.45859 | 144.79759 | 7593 ft | 268 kts | 173° |
| 2026-05-05 11:30 | -37.47699 | 144.80122 | 7361 ft | 267 kts | 172° |
| 2026-05-05 11:30 | -37.49528 | 144.80528 | 7120 ft | 267 kts | 171° |
| 2026-05-05 11:30 | -37.51362 | 144.80937 | 6884 ft | 267 kts | 171° |
| 2026-05-05 11:31 | -37.53185 | 144.81341 | 6649 ft | 266 kts | 171° |
| 2026-05-05 11:31 | -37.54901 | 144.82177 | 6369 ft | 269 kts | 143° |
| 2026-05-05 11:31 | -37.56052 | 144.84003 | 6133 ft | 269 kts | 114° |
| 2026-05-05 11:31 | -37.56428 | 144.86289 | 5899 ft | 268 kts | 89° |
| 2026-05-05 11:32 | -37.56247 | 144.88612 | 5675 ft | 266 kts | 83° |
| 2026-05-05 11:32 | -37.55985 | 144.90913 | 5433 ft | 264 kts | 82° |
| 2026-05-05 11:32 | -37.55716 | 144.93177 | 5305 ft | 257 kts | 81° |
| 2026-05-05 11:32 | -37.55451 | 144.95360 | 5259 ft | 246 kts | 82° |
| 2026-05-05 11:33 | -37.55199 | 144.97422 | 5246 ft | 235 kts | 82° |
| 2026-05-05 11:33 | -37.54957 | 144.99386 | 5262 ft | 219 kts | 82° |
| 2026-05-05 11:33 | -37.54727 | 145.01241 | 5250 ft | 212 kts | 81° |
| 2026-05-05 11:33 | -37.54505 | 145.03076 | 5258 ft | 213 kts | 82° |
| 2026-05-05 11:34 | -37.54285 | 145.04930 | 5265 ft | 214 kts | 82° |
| 2026-05-05 11:34 | -37.54065 | 145.06785 | 5266 ft | 215 kts | 82° |
| 2026-05-05 11:34 | -37.53845 | 145.08655 | 5263 ft | 216 kts | 82° |
| 2026-05-05 11:34 | -37.53623 | 145.10534 | 5263 ft | 216 kts | 82° |
| 2026-05-05 11:35 | -37.53403 | 145.12406 | 5257 ft | 216 kts | 82° |
| 2026-05-05 11:35 | -37.53183 | 145.14286 | 5255 ft | 216 kts | 82° |
| 2026-05-05 11:35 | -37.52968 | 145.16155 | 5254 ft | 215 kts | 84° |
| 2026-05-05 11:35 | -37.53107 | 145.18003 | 5251 ft | 212 kts | 115° |
| 2026-05-05 11:36 | -37.54032 | 145.19382 | 5259 ft | 207 kts | 152° |
| 2026-05-05 11:36 | -37.55395 | 145.19834 | 5274 ft | 203 kts | 179° |
| 2026-05-05 11:36 | -37.56800 | 145.19854 | 5005 ft | 206 kts | 181° |
| 2026-05-05 11:36 | -37.58191 | 145.19838 | 4896 ft | 194 kts | 182° |
| 2026-05-05 11:37 | -37.59502 | 145.19820 | 4867 ft | 186 kts | 182° |
| 2026-05-05 11:37 | -37.60767 | 145.19592 | 4823 ft | 184 kts | 208° |
| 2026-05-05 11:37 | -37.61653 | 145.18482 | 4790 ft | 184 kts | 241° |
| 2026-05-05 11:37 | -37.62242 | 145.17008 | 4529 ft | 196 kts | 246° |
| 2026-05-05 11:38 | -37.62705 | 145.15364 | 4173 ft | 197 kts | 253° |
| 2026-05-05 11:38 | -37.63101 | 145.13760 | 3971 ft | 182 kts | 253° |
| 2026-05-05 11:38 | -37.63468 | 145.12281 | 3812 ft | 174 kts | 253° |
| 2026-05-05 11:38 | -37.63818 | 145.10902 | 3742 ft | 159 kts | 252° |
| 2026-05-05 11:39 | -37.64274 | 145.09683 | 3641 ft | 151 kts | 231° |
| 2026-05-05 11:39 | -37.64962 | 145.08701 | 3533 ft | 148 kts | 230° |
| 2026-05-05 11:39 | -37.65631 | 145.07721 | 3442 ft | 147 kts | 231° |
| 2026-05-05 11:39 | -37.66301 | 145.06738 | 3337 ft | 148 kts | 231° |
| 2026-05-05 11:40 | -37.66958 | 145.05760 | 3248 ft | 148 kts | 234° |
| 2026-05-05 11:40 | -37.67246 | 145.04566 | 3179 ft | 144 kts | 273° |
| 2026-05-05 11:40 | -37.67240 | 145.03281 | 3095 ft | 147 kts | 268° |
| 2026-05-05 11:40 | -37.67227 | 145.02000 | 2992 ft | 145 kts | 272° |
| 2026-05-05 11:41 | -37.67164 | 145.00727 | 2896 ft | 145 kts | 274° |
| 2026-05-05 11:41 | -37.67089 | 144.99439 | 2795 ft | 149 kts | 274° |
| 2026-05-05 11:41 | -37.67011 | 144.98131 | 2603 ft | 148 kts | 274° |
| 2026-05-05 11:41 | -37.66935 | 144.96852 | 2483 ft | 145 kts | 274° |
| 2026-05-05 11:42 | -37.66858 | 144.95564 | 2316 ft | 149 kts | 274° |
| 2026-05-05 11:42 | -37.66781 | 144.94268 | 2044 ft | 150 kts | 274° |
| 2026-05-05 11:42 | -37.66703 | 144.92961 | 1759 ft | 145 kts | 274° |
| 2026-05-05 11:42 | -37.66629 | 144.91704 | 1556 ft | 142 kts | 274° |
| 2026-05-05 11:43 | -37.66561 | 144.90473 | 1306 ft | 141 kts | 273° |
| 2026-05-05 11:43 | -37.66495 | 144.89263 | 1153 ft | 137 kts | 278° |
| 2026-05-05 11:43 | -37.66415 | 144.88070 | 943 ft | 137 kts | 271° |
| 2026-05-05 11:43 | -37.66356 | 144.86890 | 771 ft | 136 kts | 275° |
| 2026-05-05 11:44 | -37.66275 | 144.85681 | 599 ft | 138 kts | 275° |
| 2026-05-05 11:44 | -37.66209 | 144.84491 | 436 ft | 134 kts | 272° |
| 2026-05-05 11:44 | -37.66149 | 144.83436 | 414 ft | 102 kts | 274° |
| 2026-05-05 11:44 | -37.66164 | 144.82932 | 404 ft | 23 kts | 236° |
| 2026-05-05 11:45 | -37.66197 | 144.82862 | 403 ft | 3 kts | 241° |
| 2026-05-05 11:45 | -37.66223 | 144.82798 | 399 ft | 12 kts | 242° |
| 2026-05-05 11:45 | -37.66281 | 144.82703 | 392 ft | 15 kts | 210° |
| 2026-05-05 11:45 | -37.66384 | 144.82702 | 388 ft | 17 kts | 154° |
| 2026-05-05 11:46 | -37.66447 | 144.82825 | 384 ft | 17 kts | 96° |
| 2026-05-05 11:46 | -37.66456 | 144.82976 | 388 ft | 17 kts | 94° |
| 2026-05-05 11:46 | -37.66464 | 144.83127 | 390 ft | 17 kts | 94° |
| 2026-05-05 11:46 | -37.66473 | 144.83273 | 399 ft | 17 kts | 94° |
| 2026-05-05 11:47 | -37.66481 | 144.83415 | 402 ft | 16 kts | 95° |
| 2026-05-05 11:47 | -37.66492 | 144.83550 | 403 ft | 15 kts | 95° |
| 2026-05-05 11:47 | -37.66499 | 144.83681 | 404 ft | 15 kts | 93° |
| 2026-05-05 11:47 | -37.66503 | 144.83807 | 403 ft | 14 kts | 94° |
| 2026-05-05 11:48 | -37.66515 | 144.83938 | 403 ft | 2 kts | 96° |
| 2026-05-05 11:48 | -37.66517 | 144.83961 | 403 ft | 5 kts | 96° |
| 2026-05-05 11:48 | -37.66514 | 144.84034 | 403 ft | 11 kts | 85° |
| 2026-05-05 11:49 | -37.66544 | 144.84143 | 402 ft | 17 kts | 146° |
| 2026-05-05 11:49 | -37.66671 | 144.84171 | 396 ft | 20 kts | 165° |
| 2026-05-05 11:49 | -37.66763 | 144.84191 | 392 ft | 20 kts | 170° |
| 2026-05-05 11:49 | -37.66904 | 144.84213 | 387 ft | 20 kts | 172° |
| 2026-05-05 11:50 | -37.67040 | 144.84239 | 384 ft | 20 kts | 170° |
| 2026-05-05 11:50 | -37.67170 | 144.84273 | 382 ft | 18 kts | 153° |
| 2026-05-05 11:50 | -37.67200 | 144.84418 | 383 ft | 18 kts | 87° |
| 2026-05-05 11:50 | -37.67208 | 144.84570 | 385 ft | 17 kts | 79° |
| 2026-05-05 11:51 | -37.67190 | 144.84703 | 387 ft | 9 kts | 82° |
| 2026-05-05 11:51 | -37.67162 | 144.84757 | 389 ft | 7 kts | 22° |
| 2026-05-05 11:51 | -37.67142 | 144.84763 | 389 ft | 0 kts | 14° |